Hlavní strana
METAR-TAF:

METAR-TAF

Letiště :

Sogndal, Norsko

zeměpisná šířka: 61-09N, zeměpisná délka: 007-08E, výška: 49 m

Aktuální stav počasí

Zpráva byla vytvořena před 28 minutami, v 15:50 UTC
Západojihozápadní vítr 6 kt
Teplota 21°C
Vlhkost vzduchu 53%
Tlak 1022 hPa
Viditelnost 10 km a více
Skoro jasno ve výšce 5000 ft

METAR: ENSG 251550Z 25006KT 9999 FEW050 21/11 Q1022 RMK WIND 3806FT 26010KT

Čas: 18:18 (16:18 UTC)


TAF: chybějící

Stav a předpovědi počasí z více než 4 000 letišť (zprávy METAR a TAF).

Červené a žluté tečky na mapě představují dostupné meteorologické stanice.

Když kurzor umístíte na tečku, zobrazí se název stanice.

Pak kliknutím zobrazíte stav a předpověď počasí.

Chcete-li změnit mapu, kliknutím na zelené tlačítko se znaménkem +mapu přiblížíte, kliknutím na zelené tlačítko se znaménkem – mapu oddálíte a kliknutím na zelené šipky přejdete na sousední mapy.


METAR-TAF: